sensor_id;sensor_type;location;lat;lon;timestamp;P1;durP1;ratioP1;P2;durP2;ratioP2
42802;SDS011;28447;48.682;9.022;2024-03-23T05:01:59;11.70;;;6.27;;
42802;SDS011;28447;48.682;9.022;2024-03-23T05:04:25;7.33;;;5.97;;
42802;SDS011;28447;48.682;9.022;2024-03-23T05:06:51;10.33;;;7.10;;
42802;SDS011;28447;48.682;9.022;2024-03-23T05:09:17;7.50;;;6.80;;
42802;SDS011;28447;48.682;9.022;2024-03-23T05:11:43;9.40;;;7.10;;
42802;SDS011;28447;48.682;9.022;2024-03-23T05:14:10;8.00;;;6.90;;
42802;SDS011;28447;48.682;9.022;2024-03-23T05:16:36;9.03;;;7.80;;
42802;SDS011;28447;48.682;9.022;2024-03-23T05:19:02;11.20;;;7.70;;
42802;SDS011;28447;48.682;9.022;2024-03-23T05:21:28;11.77;;;8.00;;
42802;SDS011;28447;48.682;9.022;2024-03-23T05:23:54;16.30;;;10.80;;
42802;SDS011;28447;48.682;9.022;2024-03-23T05:26:21;18.10;;;12.20;;
42802;SDS011;28447;48.682;9.022;2024-03-23T05:28:48;20.53;;;13.33;;
42802;SDS011;28447;48.682;9.022;2024-03-23T05:31:27;18.70;;;12.90;;
42802;SDS011;28447;48.682;9.022;2024-03-23T05:33:53;20.20;;;13.27;;
42802;SDS011;28447;48.682;9.022;2024-03-23T05:36:19;18.27;;;13.40;;
42802;SDS011;28447;48.682;9.022;2024-03-23T05:38:45;21.33;;;13.07;;
42802;SDS011;28447;48.682;9.022;2024-03-23T05:41:12;19.03;;;11.80;;
42802;SDS011;28447;48.682;9.022;2024-03-23T05:43:38;19.17;;;12.40;;
42802;SDS011;28447;48.682;9.022;2024-03-23T05:46:04;19.20;;;12.13;;
42802;SDS011;28447;48.682;9.022;2024-03-23T05:48:33;20.33;;;12.40;;
42802;SDS011;28447;48.682;9.022;2024-03-23T05:50:59;21.00;;;12.17;;
42802;SDS011;28447;48.682;9.022;2024-03-23T05:53:26;20.50;;;12.93;;
42802;SDS011;28447;48.682;9.022;2024-03-23T05:55:59;15.93;;;11.70;;
42802;SDS011;28447;48.682;9.022;2024-03-23T05:58:25;16.20;;;10.77;;
42802;SDS011;28447;48.682;9.022;2024-03-23T06:00:56;17.63;;;10.83;;
42802;SDS011;28447;48.682;9.022;2024-03-23T06:03:23;20.70;;;13.07;;
42802;SDS011;28447;48.682;9.022;2024-03-23T06:05:49;15.90;;;10.17;;
42802;SDS011;28447;48.682;9.022;2024-03-23T06:08:15;15.20;;;9.27;;
42802;SDS011;28447;48.682;9.022;2024-03-23T06:10:41;13.43;;;8.33;;
42802;SDS011;28447;48.682;9.022;2024-03-23T06:13:07;12.13;;;7.30;;
42802;SDS011;28447;48.682;9.022;2024-03-23T06:15:33;8.33;;;6.00;;
42802;SDS011;28447;48.682;9.022;2024-03-23T06:18:02;7.93;;;5.23;;
42802;SDS011;28447;48.682;9.022;2024-03-23T06:20:33;9.10;;;5.67;;
42802;SDS011;28447;48.682;9.022;2024-03-23T06:22:59;7.90;;;4.80;;
42802;SDS011;28447;48.682;9.022;2024-03-23T06:25:25;6.00;;;4.47;;
42802;SDS011;28447;48.682;9.022;2024-03-23T06:27:51;5.40;;;3.80;;
42802;SDS011;28447;48.682;9.022;2024-03-23T06:30:17;5.40;;;4.17;;
42802;SDS011;28447;48.682;9.022;2024-03-23T06:32:43;5.80;;;3.60;;
42802;SDS011;28447;48.682;9.022;2024-03-23T06:35:09;4.23;;;3.30;;
42802;SDS011;28447;48.682;9.022;2024-03-23T06:37:35;4.07;;;3.13;;
42802;SDS011;28447;48.682;9.022;2024-03-23T06:40:01;3.00;;;2.40;;
42802;SDS011;28447;48.682;9.022;2024-03-23T06:42:29;2.90;;;2.10;;
42802;SDS011;28447;48.682;9.022;2024-03-23T06:44:55;2.53;;;1.73;;
42802;SDS011;28447;48.682;9.022;2024-03-23T06:47:21;3.30;;;1.73;;
42802;SDS011;28447;48.682;9.022;2024-03-23T06:49:47;2.53;;;1.70;;
42802;SDS011;28447;48.682;9.022;2024-03-23T06:52:13;2.40;;;1.60;;
42802;SDS011;28447;48.682;9.022;2024-03-23T06:54:39;2.97;;;2.10;;
42802;SDS011;28447;48.682;9.022;2024-03-23T06:57:05;2.13;;;1.80;;
42802;SDS011;28447;48.682;9.022;2024-03-23T06:59:32;1.90;;;1.60;;
42802;SDS011;28447;48.682;9.022;2024-03-23T07:01:58;2.63;;;1.50;;
42802;SDS011;28447;48.682;9.022;2024-03-23T07:04:24;1.80;;;1.60;;
42802;SDS011;28447;48.682;9.022;2024-03-23T07:06:50;1.70;;;1.30;;
42802;SDS011;28447;48.682;9.022;2024-03-23T07:09:16;1.77;;;1.43;;
42802;SDS011;28447;48.682;9.022;2024-03-23T07:11:42;1.93;;;1.40;;
42802;SDS011;28447;48.682;9.022;2024-03-23T07:14:08;2.40;;;1.67;;
42802;SDS011;28447;48.682;9.022;2024-03-23T07:16:37;1.50;;;1.10;;
42802;SDS011;28447;48.682;9.022;2024-03-23T07:19:03;3.20;;;1.30;;
42802;SDS011;28447;48.682;9.022;2024-03-23T07:21:29;1.87;;;1.23;;
42802;SDS011;28447;48.682;9.022;2024-03-23T07:23:55;1.20;;;1.10;;
42802;SDS011;28447;48.682;9.022;2024-03-23T07:26:21;1.70;;;1.20;;
42802;SDS011;28447;48.682;9.022;2024-03-23T07:28:47;3.07;;;1.10;;
42802;SDS011;28447;48.682;9.022;2024-03-23T07:31:14;1.60;;;1.30;;
42802;SDS011;28447;48.682;9.022;2024-03-23T07:36:09;1.10;;;0.90;;
42802;SDS011;28447;48.682;9.022;2024-03-23T07:38:35;1.43;;;1.17;;
42802;SDS011;28447;48.682;9.022;2024-03-23T07:43:34;1.57;;;1.20;;
42802;SDS011;28447;48.682;9.022;2024-03-23T07:46:01;1.20;;;1.00;;
42802;SDS011;28447;48.682;9.022;2024-03-23T07:48:29;2.33;;;1.00;;
42802;SDS011;28447;48.682;9.022;2024-03-23T07:51:01;1.87;;;1.10;;
42802;SDS011;28447;48.682;9.022;2024-03-23T07:53:28;1.50;;;1.20;;
42802;SDS011;28447;48.682;9.022;2024-03-23T07:55:55;1.17;;;0.90;;
42802;SDS011;28447;48.682;9.022;2024-03-23T07:58:21;1.37;;;1.03;;
42802;SDS011;28447;48.682;9.022;2024-03-23T08:00:47;1.37;;;1.27;;
42802;SDS011;28447;48.682;9.022;2024-03-23T08:03:13;1.47;;;1.27;;
42802;SDS011;28447;48.682;9.022;2024-03-23T08:05:39;1.47;;;1.10;;
42802;SDS011;28447;48.682;9.022;2024-03-23T08:08:05;1.37;;;1.13;;
42802;SDS011;28447;48.682;9.022;2024-03-23T08:10:31;1.70;;;1.07;;
42802;SDS011;28447;48.682;9.022;2024-03-23T08:12:57;1.60;;;1.20;;
42802;SDS011;28447;48.682;9.022;2024-03-23T08:15:23;1.90;;;1.40;;
42802;SDS011;28447;48.682;9.022;2024-03-23T08:17:49;1.50;;;1.17;;
42802;SDS011;28447;48.682;9.022;2024-03-23T08:20:15;2.60;;;1.50;;
42802;SDS011;28447;48.682;9.022;2024-03-23T08:22:41;1.80;;;1.30;;
42802;SDS011;28447;48.682;9.022;2024-03-23T08:25:07;1.53;;;1.43;;
42802;SDS011;28447;48.682;9.022;2024-03-23T08:27:33;2.27;;;1.63;;
42802;SDS011;28447;48.682;9.022;2024-03-23T08:29:59;2.20;;;1.70;;
42802;SDS011;28447;48.682;9.022;2024-03-23T08:32:25;2.17;;;1.63;;
42802;SDS011;28447;48.682;9.022;2024-03-23T08:34:51;2.03;;;1.70;;
42802;SDS011;28447;48.682;9.022;2024-03-23T08:37:18;2.03;;;1.63;;
42802;SDS011;28447;48.682;9.022;2024-03-23T08:39:44;2.70;;;1.70;;
42802;SDS011;28447;48.682;9.022;2024-03-23T08:42:10;1.90;;;1.70;;
42802;SDS011;28447;48.682;9.022;2024-03-23T08:44:36;5.87;;;2.30;;
42802;SDS011;28447;48.682;9.022;2024-03-23T08:47:02;3.23;;;2.00;;
42802;SDS011;28447;48.682;9.022;2024-03-23T08:49:28;3.20;;;2.37;;
42802;SDS011;28447;48.682;9.022;2024-03-23T08:51:54;7.93;;;2.50;;
42802;SDS011;28447;48.682;9.022;2024-03-23T08:54:20;2.93;;;2.17;;
42802;SDS011;28447;48.682;9.022;2024-03-23T08:56:48;8.50;;;2.23;;
42802;SDS011;28447;48.682;9.022;2024-03-23T08:59:14;2.63;;;2.17;;
42802;SDS011;28447;48.682;9.022;2024-03-23T09:01:40;4.30;;;2.30;;
42802;SDS011;28447;48.682;9.022;2024-03-23T09:04:06;6.93;;;3.10;;
42802;SDS011;28447;48.682;9.022;2024-03-23T09:06:32;5.10;;;3.83;;
42802;SDS011;28447;48.682;9.022;2024-03-23T09:08:58;5.10;;;3.40;;
42802;SDS011;28447;48.682;9.022;2024-03-23T09:11:24;4.50;;;3.20;;
42802;SDS011;28447;48.682;9.022;2024-03-23T09:13:50;7.73;;;3.93;;
42802;SDS011;28447;48.682;9.022;2024-03-23T09:16:16;5.70;;;4.30;;
42802;SDS011;28447;48.682;9.022;2024-03-23T09:18:42;8.07;;;4.30;;
42802;SDS011;28447;48.682;9.022;2024-03-23T09:21:11;6.70;;;3.90;;
42802;SDS011;28447;48.682;9.022;2024-03-23T09:23:38;8.80;;;4.37;;
42802;SDS011;28447;48.682;9.022;2024-03-23T09:26:05;8.60;;;4.67;;
42802;SDS011;28447;48.682;9.022;2024-03-23T09:28:34;5.83;;;4.50;;
42802;SDS011;28447;48.682;9.022;2024-03-23T09:31:03;8.10;;;4.83;;
42802;SDS011;28447;48.682;9.022;2024-03-23T09:33:29;7.90;;;4.93;;
42802;SDS011;28447;48.682;9.022;2024-03-23T09:35:56;9.30;;;4.60;;
42802;SDS011;28447;48.682;9.022;2024-03-23T09:38:25;8.57;;;4.77;;
42802;SDS011;28447;48.682;9.022;2024-03-23T09:40:52;7.90;;;5.33;;
42802;SDS011;28447;48.682;9.022;2024-03-23T09:43:18;9.03;;;5.50;;
42802;SDS011;28447;48.682;9.022;2024-03-23T09:45:44;13.53;;;4.60;;
42802;SDS011;28447;48.682;9.022;2024-03-23T09:48:11;16.67;;;5.17;;
42802;SDS011;28447;48.682;9.022;2024-03-23T09:50:41;6.80;;;4.33;;
42802;SDS011;28447;48.682;9.022;2024-03-23T09:53:07;9.37;;;5.33;;
42802;SDS011;28447;48.682;9.022;2024-03-23T09:55:34;6.17;;;4.27;;
42802;SDS011;28447;48.682;9.022;2024-03-23T09:58:03;11.37;;;5.27;;
42802;SDS011;28447;48.682;9.022;2024-03-23T10:00:30;9.73;;;5.20;;
42802;SDS011;28447;48.682;9.022;2024-03-23T10:02:56;11.53;;;5.17;;
42802;SDS011;28447;48.682;9.022;2024-03-23T10:05:29;11.87;;;4.60;;
42802;SDS011;28447;48.682;9.022;2024-03-23T10:10:40;11.00;;;4.70;;
42802;SDS011;28447;48.682;9.022;2024-03-23T10:13:06;9.93;;;4.53;;
42802;SDS011;28447;48.682;9.022;2024-03-23T10:15:35;10.40;;;4.47;;
42802;SDS011;28447;48.682;9.022;2024-03-23T10:18:20;9.67;;;5.07;;
42802;SDS011;28447;48.682;9.022;2024-03-23T10:20:51;10.37;;;4.83;;
42802;SDS011;28447;48.682;9.022;2024-03-23T10:23:18;8.63;;;4.90;;
42802;SDS011;28447;48.682;9.022;2024-03-23T10:25:44;11.43;;;5.10;;
42802;SDS011;28447;48.682;9.022;2024-03-23T10:28:11;8.53;;;4.07;;
42802;SDS011;28447;48.682;9.022;2024-03-23T10:30:37;9.03;;;4.60;;
42802;SDS011;28447;48.682;9.022;2024-03-23T10:33:12;9.00;;;4.10;;
42802;SDS011;28447;48.682;9.022;2024-03-23T10:35:39;9.00;;;4.00;;
42802;SDS011;28447;48.682;9.022;2024-03-23T10:38:06;9.57;;;6.37;;
42802;SDS011;28447;48.682;9.022;2024-03-23T10:40:35;11.17;;;4.93;;
42802;SDS011;28447;48.682;9.022;2024-03-23T10:43:02;7.67;;;4.77;;
42802;SDS011;28447;48.682;9.022;2024-03-23T10:45:30;9.20;;;4.57;;
42802;SDS011;28447;48.682;9.022;2024-03-23T10:47:56;11.90;;;6.80;;
42802;SDS011;28447;48.682;9.022;2024-03-23T10:50:22;7.03;;;3.70;;
42802;SDS011;28447;48.682;9.022;2024-03-23T10:52:48;3.90;;;2.70;;
42802;SDS011;28447;48.682;9.022;2024-03-23T10:55:18;5.80;;;3.23;;
42802;SDS011;28447;48.682;9.022;2024-03-23T10:57:48;6.20;;;2.80;;
42802;SDS011;28447;48.682;9.022;2024-03-23T11:00:16;5.50;;;3.60;;
42802;SDS011;28447;48.682;9.022;2024-03-23T11:02:42;7.83;;;4.40;;
42802;SDS011;28447;48.682;9.022;2024-03-23T11:08:07;14.83;;;4.60;;
42802;SDS011;28447;48.682;9.022;2024-03-23T11:10:33;9.80;;;4.40;;
42802;SDS011;28447;48.682;9.022;2024-03-23T11:15:45;5.80;;;3.90;;
42802;SDS011;28447;48.682;9.022;2024-03-23T11:18:11;6.83;;;3.80;;
42802;SDS011;28447;48.682;9.022;2024-03-23T11:20:45;8.17;;;3.87;;
42802;SDS011;28447;48.682;9.022;2024-03-23T11:23:26;8.27;;;4.37;;
42802;SDS011;28447;48.682;9.022;2024-03-23T11:25:53;9.07;;;4.73;;
42802;SDS011;28447;48.682;9.022;2024-03-23T11:28:19;6.37;;;3.50;;
42802;SDS011;28447;48.682;9.022;2024-03-23T11:30:45;5.10;;;3.20;;
42802;SDS011;28447;48.682;9.022;2024-03-23T11:33:11;4.50;;;2.87;;
42802;SDS011;28447;48.682;9.022;2024-03-23T11:35:38;5.57;;;2.90;;
42802;SDS011;28447;48.682;9.022;2024-03-23T11:38:14;6.00;;;2.90;;
42802;SDS011;28447;48.682;9.022;2024-03-23T11:43:07;4.23;;;2.53;;
42802;SDS011;28447;48.682;9.022;2024-03-23T11:45:34;4.30;;;2.70;;
42802;SDS011;28447;48.682;9.022;2024-03-23T11:48:10;4.53;;;2.63;;
42802;SDS011;28447;48.682;9.022;2024-03-23T11:50:38;4.97;;;2.80;;
42802;SDS011;28447;48.682;9.022;2024-03-23T11:53:26;5.43;;;2.93;;
42802;SDS011;28447;48.682;9.022;2024-03-23T11:55:56;3.97;;;2.40;;
42802;SDS011;28447;48.682;9.022;2024-03-23T11:58:22;4.50;;;2.20;;
42802;SDS011;28447;48.682;9.022;2024-03-23T12:00:49;4.97;;;2.40;;
42802;SDS011;28447;48.682;9.022;2024-03-23T12:03:17;6.40;;;2.50;;
42802;SDS011;28447;48.682;9.022;2024-03-23T12:05:47;5.47;;;2.40;;
42802;SDS011;28447;48.682;9.022;2024-03-23T12:10:47;5.77;;;2.43;;
42802;SDS011;28447;48.682;9.022;2024-03-23T12:13:16;8.97;;;2.40;;
42802;SDS011;28447;48.682;9.022;2024-03-23T12:15:43;7.43;;;2.87;;
42802;SDS011;28447;48.682;9.022;2024-03-23T12:18:09;15.23;;;3.13;;
42802;SDS011;28447;48.682;9.022;2024-03-23T12:20:36;8.30;;;3.10;;
42802;SDS011;28447;48.682;9.022;2024-03-23T12:23:09;6.63;;;2.97;;
42802;SDS011;28447;48.682;9.022;2024-03-23T12:25:36;12.50;;;3.80;;
42802;SDS011;28447;48.682;9.022;2024-03-23T12:28:02;6.63;;;3.43;;
42802;SDS011;28447;48.682;9.022;2024-03-23T12:30:31;7.10;;;3.40;;
42802;SDS011;28447;48.682;9.022;2024-03-23T12:32:57;8.40;;;3.30;;
42802;SDS011;28447;48.682;9.022;2024-03-23T12:35:23;7.10;;;3.20;;
42802;SDS011;28447;48.682;9.022;2024-03-23T12:37:49;7.97;;;3.53;;
42802;SDS011;28447;48.682;9.022;2024-03-23T12:40:15;8.10;;;4.40;;
42802;SDS011;28447;48.682;9.022;2024-03-23T12:42:41;12.27;;;4.40;;
42802;SDS011;28447;48.682;9.022;2024-03-23T12:45:07;11.70;;;3.77;;
42802;SDS011;28447;48.682;9.022;2024-03-23T12:47:33;7.23;;;3.57;;
42802;SDS011;28447;48.682;9.022;2024-03-23T12:49:59;8.10;;;4.30;;
42802;SDS011;28447;48.682;9.022;2024-03-23T12:52:25;9.70;;;3.80;;
42802;SDS011;28447;48.682;9.022;2024-03-23T12:54:56;8.20;;;3.80;;
42802;SDS011;28447;48.682;9.022;2024-03-23T12:57:25;8.70;;;3.93;;
42802;SDS011;28447;48.682;9.022;2024-03-23T12:59:51;13.77;;;3.87;;
42802;SDS011;28447;48.682;9.022;2024-03-23T13:02:18;7.80;;;3.40;;
42802;SDS011;28447;48.682;9.022;2024-03-23T13:04:45;8.33;;;3.23;;
42802;SDS011;28447;48.682;9.022;2024-03-23T13:07:11;9.60;;;3.97;;
42802;SDS011;28447;48.682;9.022;2024-03-23T13:09:37;8.00;;;2.67;;
42802;SDS011;28447;48.682;9.022;2024-03-23T13:12:03;4.00;;;2.40;;
42802;SDS011;28447;48.682;9.022;2024-03-23T13:14:29;4.43;;;1.90;;
42802;SDS011;28447;48.682;9.022;2024-03-23T13:16:55;6.17;;;2.00;;
42802;SDS011;28447;48.682;9.022;2024-03-23T13:19:21;4.60;;;2.00;;
42802;SDS011;28447;48.682;9.022;2024-03-23T13:21:52;2.10;;;1.57;;
42802;SDS011;28447;48.682;9.022;2024-03-23T13:24:17;2.63;;;1.53;;
42802;SDS011;28447;48.682;9.022;2024-03-23T13:26:46;1.33;;;1.23;;
42802;SDS011;28447;48.682;9.022;2024-03-23T13:29:12;2.20;;;1.70;;
42802;SDS011;28447;48.682;9.022;2024-03-23T13:31:39;3.30;;;1.67;;
42802;SDS011;28447;48.682;9.022;2024-03-23T13:34:05;3.20;;;1.50;;
42802;SDS011;28447;48.682;9.022;2024-03-23T13:36:31;4.00;;;2.10;;
42802;SDS011;28447;48.682;9.022;2024-03-23T13:38:57;3.30;;;2.30;;
42802;SDS011;28447;48.682;9.022;2024-03-23T13:41:23;2.90;;;1.70;;
42802;SDS011;28447;48.682;9.022;2024-03-23T13:43:49;2.53;;;2.30;;
42802;SDS011;28447;48.682;9.022;2024-03-23T13:46:15;3.70;;;2.60;;
42802;SDS011;28447;48.682;9.022;2024-03-23T13:48:41;5.70;;;2.87;;
42802;SDS011;28447;48.682;9.022;2024-03-23T13:51:07;8.00;;;2.80;;
42802;SDS011;28447;48.682;9.022;2024-03-23T13:53:33;3.80;;;2.67;;
42802;SDS011;28447;48.682;9.022;2024-03-23T13:55:59;6.33;;;2.47;;
42802;SDS011;28447;48.682;9.022;2024-03-23T13:58:26;5.40;;;2.73;;
42802;SDS011;28447;48.682;9.022;2024-03-23T14:00:52;4.53;;;2.30;;
42802;SDS011;28447;48.682;9.022;2024-03-23T14:03:18;6.90;;;2.70;;
42802;SDS011;28447;48.682;9.022;2024-03-23T14:05:45;2.93;;;2.40;;
42802;SDS011;28447;48.682;9.022;2024-03-23T14:08:12;3.17;;;2.10;;
42802;SDS011;28447;48.682;9.022;2024-03-23T14:10:41;8.53;;;2.40;;
42802;SDS011;28447;48.682;9.022;2024-03-23T14:13:08;5.27;;;2.17;;
42802;SDS011;28447;48.682;9.022;2024-03-23T14:15:34;4.00;;;2.00;;
42802;SDS011;28447;48.682;9.022;2024-03-23T14:18:01;2.03;;;1.70;;
42802;SDS011;28447;48.682;9.022;2024-03-23T14:20:28;6.00;;;1.77;;
42802;SDS011;28447;48.682;9.022;2024-03-23T14:22:54;3.27;;;2.03;;
42802;SDS011;28447;48.682;9.022;2024-03-23T14:25:21;4.23;;;2.20;;
42802;SDS011;28447;48.682;9.022;2024-03-23T14:27:52;3.43;;;1.90;;
42802;SDS011;28447;48.682;9.022;2024-03-23T14:30:18;3.10;;;1.93;;
42802;SDS011;28447;48.682;9.022;2024-03-23T14:32:44;5.30;;;1.80;;
42802;SDS011;28447;48.682;9.022;2024-03-23T14:35:10;5.50;;;2.13;;
42802;SDS011;28447;48.682;9.022;2024-03-23T14:37:37;3.57;;;2.30;;
42802;SDS011;28447;48.682;9.022;2024-03-23T14:40:03;4.13;;;2.30;;
42802;SDS011;28447;48.682;9.022;2024-03-23T14:42:29;4.13;;;2.73;;
42802;SDS011;28447;48.682;9.022;2024-03-23T14:44:59;2.80;;;2.23;;
42802;SDS011;28447;48.682;9.022;2024-03-23T14:47:25;7.33;;;2.13;;
42802;SDS011;28447;48.682;9.022;2024-03-23T14:49:51;4.60;;;2.20;;
42802;SDS011;28447;48.682;9.022;2024-03-23T14:52:17;2.93;;;2.00;;
42802;SDS011;28447;48.682;9.022;2024-03-23T14:54:43;7.93;;;2.50;;
42802;SDS011;28447;48.682;9.022;2024-03-23T14:57:09;4.07;;;1.93;;
42802;SDS011;28447;48.682;9.022;2024-03-23T14:59:36;6.67;;;2.30;;
42802;SDS011;28447;48.682;9.022;2024-03-23T15:02:06;5.40;;;2.20;;
42802;SDS011;28447;48.682;9.022;2024-03-23T15:04:32;4.70;;;2.00;;
42802;SDS011;28447;48.682;9.022;2024-03-23T15:06:58;4.57;;;1.83;;
42802;SDS011;28447;48.682;9.022;2024-03-23T15:09:24;4.53;;;2.10;;
42802;SDS011;28447;48.682;9.022;2024-03-23T15:11:50;3.23;;;2.00;;
42802;SDS011;28447;48.682;9.022;2024-03-23T15:14:16;3.60;;;1.70;;
42802;SDS011;28447;48.682;9.022;2024-03-23T15:16:42;2.57;;;2.03;;
42802;SDS011;28447;48.682;9.022;2024-03-23T15:19:08;2.90;;;1.67;;
42802;SDS011;28447;48.682;9.022;2024-03-23T15:21:34;3.00;;;1.93;;
42802;SDS011;28447;48.682;9.022;2024-03-23T15:24:00;2.97;;;1.90;;
42802;SDS011;28447;48.682;9.022;2024-03-23T15:26:26;4.07;;;1.90;;
42802;SDS011;28447;48.682;9.022;2024-03-23T15:28:52;2.10;;;1.70;;
42802;SDS011;28447;48.682;9.022;2024-03-23T15:31:24;2.83;;;2.10;;
42802;SDS011;28447;48.682;9.022;2024-03-23T15:33:50;4.07;;;1.70;;
42802;SDS011;28447;48.682;9.022;2024-03-23T15:36:17;2.40;;;2.00;;
42802;SDS011;28447;48.682;9.022;2024-03-23T15:38:43;2.00;;;1.50;;
42802;SDS011;28447;48.682;9.022;2024-03-23T15:41:10;2.93;;;2.10;;
42802;SDS011;28447;48.682;9.022;2024-03-23T15:43:36;2.93;;;2.40;;
42802;SDS011;28447;48.682;9.022;2024-03-23T15:46:03;2.20;;;1.60;;
42802;SDS011;28447;48.682;9.022;2024-03-23T15:48:30;3.77;;;1.70;;
42802;SDS011;28447;48.682;9.022;2024-03-23T15:50:57;4.30;;;2.03;;
42802;SDS011;28447;48.682;9.022;2024-03-23T15:53:24;3.13;;;2.13;;
42802;SDS011;28447;48.682;9.022;2024-03-23T15:55:54;3.60;;;1.50;;
42802;SDS011;28447;48.682;9.022;2024-03-23T15:58:20;2.97;;;1.60;;
42802;SDS011;28447;48.682;9.022;2024-03-23T16:00:54;1.80;;;1.50;;
42802;SDS011;28447;48.682;9.022;2024-03-23T16:03:20;2.20;;;1.70;;
42802;SDS011;28447;48.682;9.022;2024-03-23T16:05:52;1.90;;;1.40;;
42802;SDS011;28447;48.682;9.022;2024-03-23T16:08:18;2.30;;;1.70;;
42802;SDS011;28447;48.682;9.022;2024-03-23T16:10:44;2.70;;;1.60;;
42802;SDS011;28447;48.682;9.022;2024-03-23T16:13:10;2.53;;;1.53;;
42802;SDS011;28447;48.682;9.022;2024-03-23T16:15:36;3.60;;;1.40;;
42802;SDS011;28447;48.682;9.022;2024-03-23T16:18:02;2.87;;;1.63;;
42802;SDS011;28447;48.682;9.022;2024-03-23T16:20:28;3.40;;;1.53;;
42802;SDS011;28447;48.682;9.022;2024-03-23T16:22:55;1.90;;;1.50;;
42802;SDS011;28447;48.682;9.022;2024-03-23T16:25:21;3.03;;;1.33;;
42802;SDS011;28447;48.682;9.022;2024-03-23T16:27:49;2.43;;;1.57;;
42802;SDS011;28447;48.682;9.022;2024-03-23T16:30:15;3.17;;;1.50;;
42802;SDS011;28447;48.682;9.022;2024-03-23T16:32:41;3.00;;;1.63;;
42802;SDS011;28447;48.682;9.022;2024-03-23T16:35:07;2.57;;;1.50;;
42802;SDS011;28447;48.682;9.022;2024-03-23T16:37:37;1.80;;;1.43;;
42802;SDS011;28447;48.682;9.022;2024-03-23T16:40:03;1.87;;;1.40;;
42802;SDS011;28447;48.682;9.022;2024-03-23T16:42:31;2.40;;;1.50;;
42802;SDS011;28447;48.682;9.022;2024-03-23T16:44:57;2.70;;;1.60;;
42802;SDS011;28447;48.682;9.022;2024-03-23T16:47:23;4.00;;;2.00;;
42802;SDS011;28447;48.682;9.022;2024-03-23T16:49:49;3.00;;;1.77;;
42802;SDS011;28447;48.682;9.022;2024-03-23T16:52:15;2.23;;;1.60;;
42802;SDS011;28447;48.682;9.022;2024-03-23T16:54:44;3.03;;;1.70;;
42802;SDS011;28447;48.682;9.022;2024-03-23T16:57:10;3.40;;;1.50;;
42802;SDS011;28447;48.682;9.022;2024-03-23T16:59:36;3.80;;;1.60;;
42802;SDS011;28447;48.682;9.022;2024-03-23T17:02:02;2.27;;;1.70;;
42802;SDS011;28447;48.682;9.022;2024-03-23T17:04:28;8.50;;;3.63;;
42802;SDS011;28447;48.682;9.022;2024-03-23T17:06:54;3.60;;;1.90;;
42802;SDS011;28447;48.682;9.022;2024-03-23T17:09:20;3.20;;;1.73;;
42802;SDS011;28447;48.682;9.022;2024-03-23T17:11:46;3.40;;;1.60;;
42802;SDS011;28447;48.682;9.022;2024-03-23T17:14:14;2.90;;;1.87;;
42802;SDS011;28447;48.682;9.022;2024-03-23T17:16:40;2.90;;;1.67;;
42802;SDS011;28447;48.682;9.022;2024-03-23T17:19:07;6.90;;;1.90;;
42802;SDS011;28447;48.682;9.022;2024-03-23T17:21:36;4.23;;;2.40;;
42802;SDS011;28447;48.682;9.022;2024-03-23T17:24:05;3.70;;;1.80;;
42802;SDS011;28447;48.682;9.022;2024-03-23T17:26:33;6.90;;;2.50;;
42802;SDS011;28447;48.682;9.022;2024-03-23T17:29:00;5.47;;;2.00;;
42802;SDS011;28447;48.682;9.022;2024-03-23T17:31:26;3.10;;;1.93;;
42802;SDS011;28447;48.682;9.022;2024-03-23T17:33:51;3.57;;;1.90;;
42802;SDS011;28447;48.682;9.022;2024-03-23T17:36:18;3.57;;;1.90;;
42802;SDS011;28447;48.682;9.022;2024-03-23T17:38:52;2.80;;;2.43;;
42802;SDS011;28447;48.682;9.022;2024-03-23T17:41:18;2.67;;;1.50;;
42802;SDS011;28447;48.682;9.022;2024-03-23T17:43:45;5.10;;;3.30;;
42802;SDS011;28447;48.682;9.022;2024-03-23T17:46:11;3.60;;;1.80;;
42802;SDS011;28447;48.682;9.022;2024-03-23T17:48:37;4.83;;;3.53;;
42802;SDS011;28447;48.682;9.022;2024-03-23T17:51:04;2.87;;;1.70;;
42802;SDS011;28447;48.682;9.022;2024-03-23T17:53:30;2.77;;;1.70;;
42802;SDS011;28447;48.682;9.022;2024-03-23T17:55:56;2.00;;;1.50;;
42802;SDS011;28447;48.682;9.022;2024-03-23T17:58:22;3.40;;;1.60;;
42802;SDS011;28447;48.682;9.022;2024-03-23T18:00:48;3.30;;;1.80;;
42802;SDS011;28447;48.682;9.022;2024-03-23T18:03:14;2.07;;;1.43;;
42802;SDS011;28447;48.682;9.022;2024-03-23T18:05:40;4.77;;;1.87;;
42802;SDS011;28447;48.682;9.022;2024-03-23T18:08:07;7.60;;;2.67;;
42802;SDS011;28447;48.682;9.022;2024-03-23T18:10:33;2.33;;;1.70;;
42802;SDS011;28447;48.682;9.022;2024-03-23T18:12:59;5.40;;;3.33;;
42802;SDS011;28447;48.682;9.022;2024-03-23T18:15:25;4.07;;;1.90;;
42802;SDS011;28447;48.682;9.022;2024-03-23T18:17:51;3.77;;;2.10;;
42802;SDS011;28447;48.682;9.022;2024-03-23T18:20:17;2.97;;;2.40;;
42802;SDS011;28447;48.682;9.022;2024-03-23T18:22:44;2.97;;;1.90;;
42802;SDS011;28447;48.682;9.022;2024-03-23T18:25:10;2.90;;;1.73;;
42802;SDS011;28447;48.682;9.022;2024-03-23T18:27:36;2.57;;;1.83;;
42802;SDS011;28447;48.682;9.022;2024-03-23T18:30:03;3.20;;;2.30;;
42802;SDS011;28447;48.682;9.022;2024-03-23T18:32:29;2.90;;;1.87;;
42802;SDS011;28447;48.682;9.022;2024-03-23T18:34:55;7.20;;;1.87;;
42802;SDS011;28447;48.682;9.022;2024-03-23T18:37:21;4.03;;;2.30;;
42802;SDS011;28447;48.682;9.022;2024-03-23T18:39:47;2.90;;;2.03;;
42802;SDS011;28447;48.682;9.022;2024-03-23T18:42:13;2.60;;;1.70;;
42802;SDS011;28447;48.682;9.022;2024-03-23T18:44:39;3.97;;;2.00;;
42802;SDS011;28447;48.682;9.022;2024-03-23T18:47:05;3.70;;;1.87;;
42802;SDS011;28447;48.682;9.022;2024-03-23T18:49:31;5.90;;;2.70;;
42802;SDS011;28447;48.682;9.022;2024-03-23T18:51:57;5.73;;;3.10;;
42802;SDS011;28447;48.682;9.022;2024-03-23T18:54:23;8.77;;;3.67;;
42802;SDS011;28447;48.682;9.022;2024-03-23T18:56:49;6.60;;;3.77;;
42802;SDS011;28447;48.682;9.022;2024-03-23T18:59:16;7.77;;;3.53;;
42802;SDS011;28447;48.682;9.022;2024-03-23T19:01:42;12.60;;;6.30;;
42802;SDS011;28447;48.682;9.022;2024-03-23T19:04:08;8.30;;;4.00;;
42802;SDS011;28447;48.682;9.022;2024-03-23T19:06:34;15.33;;;8.37;;
42802;SDS011;28447;48.682;9.022;2024-03-23T19:09:01;6.63;;;4.53;;
42802;SDS011;28447;48.682;9.022;2024-03-23T19:11:27;8.13;;;7.03;;
42802;SDS011;28447;48.682;9.022;2024-03-23T19:13:54;8.00;;;3.00;;
42802;SDS011;28447;48.682;9.022;2024-03-23T19:16:20;3.50;;;2.57;;
42802;SDS011;28447;48.682;9.022;2024-03-23T19:18:46;8.37;;;3.03;;
42802;SDS011;28447;48.682;9.022;2024-03-23T19:21:12;10.47;;;3.87;;
42802;SDS011;28447;48.682;9.022;2024-03-23T19:23:38;4.23;;;2.50;;
42802;SDS011;28447;48.682;9.022;2024-03-23T19:26:04;4.03;;;2.57;;
42802;SDS011;28447;48.682;9.022;2024-03-23T19:28:30;6.50;;;2.83;;
42802;SDS011;28447;48.682;9.022;2024-03-23T19:30:56;6.83;;;2.47;;
42802;SDS011;28447;48.682;9.022;2024-03-23T19:33:25;4.73;;;3.33;;
42802;SDS011;28447;48.682;9.022;2024-03-23T19:35:54;5.03;;;3.57;;
42802;SDS011;28447;48.682;9.022;2024-03-23T19:38:21;11.10;;;3.70;;
42802;SDS011;28447;48.682;9.022;2024-03-23T19:40:56;5.87;;;3.67;;
42802;SDS011;28447;48.682;9.022;2024-03-23T19:43:23;5.70;;;3.83;;
42802;SDS011;28447;48.682;9.022;2024-03-23T19:45:49;4.00;;;3.00;;
42802;SDS011;28447;48.682;9.022;2024-03-23T19:48:17;3.67;;;2.73;;
42802;SDS011;28447;48.682;9.022;2024-03-23T19:50:43;4.23;;;3.20;;
42802;SDS011;28447;48.682;9.022;2024-03-23T19:53:09;4.63;;;3.40;;
42802;SDS011;28447;48.682;9.022;2024-03-23T19:55:38;5.50;;;3.87;;
42802;SDS011;28447;48.682;9.022;2024-03-23T19:58:04;3.53;;;2.60;;
42802;SDS011;28447;48.682;9.022;2024-03-23T20:00:31;5.00;;;2.60;;
42802;SDS011;28447;48.682;9.022;2024-03-23T20:02:57;4.20;;;2.90;;